createdAt,value
2017-12-22T00:00:50.546Z,96.05
2017-12-22T00:01:53.012Z,96.17
2017-12-22T00:02:55.493Z,95.97
2017-12-22T00:03:57.969Z,95.93
2017-12-22T00:05:00.430Z,95.92
2017-12-22T00:06:02.900Z,96.05
2017-12-22T00:07:05.370Z,95.95
2017-12-22T00:08:07.864Z,95.74
2017-12-22T00:09:10.324Z,95.70
2017-12-22T00:10:12.805Z,95.82
2017-12-22T00:11:15.285Z,96.06
2017-12-22T00:12:17.768Z,96.11
2017-12-22T00:13:20.240Z,96.09
2017-12-22T00:14:22.753Z,95.89
2017-12-22T00:15:25.216Z,95.46
2017-12-22T00:16:27.681Z,94.87
2017-12-22T00:17:30.138Z,95.06
2017-12-22T00:18:32.621Z,95.19
2017-12-22T00:19:35.082Z,95.38
2017-12-22T00:20:37.556Z,95.50
2017-12-22T00:21:40.018Z,95.64
2017-12-22T00:22:42.494Z,95.76
2017-12-22T00:23:44.968Z,95.73
2017-12-22T00:24:47.449Z,95.82
2017-12-22T00:25:49.924Z,95.88
2017-12-22T00:26:52.391Z,95.78
2017-12-22T00:27:54.866Z,95.74
2017-12-22T00:28:57.346Z,95.80
2017-12-22T00:29:59.832Z,95.93
2017-12-22T00:31:02.304Z,96.09
2017-12-22T00:32:04.767Z,96.13
2017-12-22T00:33:07.249Z,96.24
2017-12-22T00:34:09.725Z,96.36
2017-12-22T00:35:12.190Z,96.52
2017-12-22T00:36:14.659Z,96.61
2017-12-22T00:37:17.114Z,96.67
2017-12-22T00:38:19.586Z,96.77
2017-12-22T00:39:22.074Z,96.84
2017-12-22T00:40:24.536Z,96.93
2017-12-22T00:41:27.013Z,97.00
2017-12-22T00:42:29.482Z,96.93
2017-12-22T00:43:31.976Z,96.37
2017-12-22T00:44:34.454Z,96.35
2017-12-22T00:45:36.925Z,96.26
2017-12-22T00:46:39.402Z,96.25
2017-12-22T00:47:41.895Z,96.36
2017-12-22T00:48:44.360Z,96.50
2017-12-22T00:49:46.823Z,96.67
2017-12-22T00:50:49.317Z,96.79
2017-12-22T00:51:51.778Z,96.80
2017-12-22T00:52:54.251Z,96.81
2017-12-22T00:53:56.731Z,96.72
2017-12-22T00:54:59.214Z,96.43
2017-12-22T00:56:01.691Z,96.47
2017-12-22T00:57:04.168Z,96.54
2017-12-22T00:58:06.627Z,96.70
2017-12-22T00:59:09.090Z,96.87
2017-12-22T01:00:11.565Z,97.06
2017-12-22T01:01:14.022Z,97.18
2017-12-22T01:02:16.494Z,97.26
2017-12-22T01:03:18.965Z,97.33
2017-12-22T01:04:21.435Z,97.12
2017-12-22T01:05:23.910Z,97.06
2017-12-22T01:06:26.385Z,97.10
2017-12-22T01:07:28.849Z,97.01
2017-12-22T01:08:31.323Z,97.01
2017-12-22T01:09:33.787Z,97.13
2017-12-22T01:10:36.242Z,97.24
2017-12-22T01:11:38.720Z,97.01
2017-12-22T01:12:41.217Z,96.82
2017-12-22T01:13:43.792Z,96.75
2017-12-22T01:14:46.265Z,96.75
2017-12-22T01:15:54.275Z,96.42
2017-12-22T01:17:02.356Z,96.24
2017-12-22T01:19:39.758Z,96.69
2017-12-22T01:20:42.231Z,96.85
2017-12-22T01:21:44.706Z,96.94
2017-12-22T01:22:47.196Z,97.01
2017-12-22T01:23:49.659Z,96.75
2017-12-22T01:24:52.137Z,96.22
2017-12-22T01:25:54.636Z,95.81
2017-12-22T01:26:57.096Z,95.86
2017-12-22T01:27:59.607Z,96.05
2017-12-22T01:29:02.078Z,96.29
2017-12-22T01:30:04.535Z,96.55
2017-12-22T01:31:07.005Z,96.70
2017-12-22T01:32:09.486Z,96.78
2017-12-22T01:33:11.951Z,96.84
2017-12-22T01:34:14.428Z,96.91
2017-12-22T01:35:16.901Z,96.87
2017-12-22T01:36:19.381Z,96.73
2017-12-22T01:37:21.876Z,96.74
2017-12-22T01:38:24.343Z,96.56
2017-12-22T01:39:26.806Z,96.61
2017-12-22T01:40:29.295Z,96.77
2017-12-22T01:41:31.836Z,96.76
2017-12-22T01:42:34.337Z,96.79
2017-12-22T01:43:36.882Z,96.88
2017-12-22T01:44:39.364Z,96.97
2017-12-22T01:45:41.826Z,97.00
2017-12-22T01:46:44.309Z,96.97
2017-12-22T01:47:47.635Z,97.02
2017-12-22T01:48:50.116Z,97.09
2017-12-22T01:49:52.605Z,96.76
2017-12-22T01:50:55.066Z,96.63
2017-12-22T01:51:57.536Z,96.65
2017-12-22T01:53:00.024Z,96.69
2017-12-22T01:54:02.498Z,96.71
2017-12-22T01:55:04.980Z,96.75
2017-12-22T01:56:07.457Z,96.31
2017-12-22T01:57:09.932Z,96.00
2017-12-22T01:58:12.416Z,95.96
2017-12-22T01:59:14.880Z,96.10
2017-12-22T02:00:17.339Z,96.28
2017-12-22T02:01:19.799Z,96.49
2017-12-22T02:02:22.404Z,96.58
2017-12-22T02:03:24.909Z,96.58
2017-12-22T02:04:27.396Z,96.52
2017-12-22T02:05:29.929Z,96.06
2017-12-22T02:06:32.369Z,95.83
2017-12-22T02:07:34.851Z,95.82
2017-12-22T02:08:37.331Z,95.15
2017-12-22T02:09:39.801Z,94.71
2017-12-22T02:10:42.303Z,94.94
2017-12-22T02:11:44.828Z,95.11
2017-12-22T02:12:47.302Z,95.40
2017-12-22T02:13:49.787Z,95.67
2017-12-22T02:14:52.265Z,95.87
2017-12-22T02:15:54.753Z,96.07
2017-12-22T02:17:00.339Z,96.23
2017-12-22T02:18:02.807Z,96.34
2017-12-22T02:19:05.305Z,96.44
2017-12-22T02:20:07.767Z,96.52
2017-12-22T02:21:10.221Z,96.47
2017-12-22T02:22:12.678Z,96.51
2017-12-22T02:23:15.152Z,96.59
2017-12-22T02:24:17.656Z,96.61
2017-12-22T02:25:20.149Z,96.52
2017-12-22T02:26:22.606Z,96.38
2017-12-22T02:27:25.076Z,96.18
2017-12-22T02:28:27.554Z,95.75
2017-12-22T02:29:30.057Z,95.58
2017-12-22T02:30:36.810Z,95.74
2017-12-22T02:31:39.293Z,95.73
2017-12-22T02:32:46.955Z,96.00
2017-12-22T02:33:49.428Z,96.07
2017-12-22T02:34:51.951Z,95.67
2017-12-22T02:35:54.430Z,95.69
2017-12-22T02:36:56.900Z,95.95
2017-12-22T02:37:59.365Z,95.72
2017-12-22T02:39:01.831Z,95.72
2017-12-22T02:40:04.312Z,95.40
2017-12-22T02:41:06.775Z,95.66
2017-12-22T02:42:09.254Z,95.56
2017-12-22T02:43:11.749Z,95.53
2017-12-22T02:44:14.207Z,95.38
2017-12-22T02:45:16.697Z,95.64
2017-12-22T02:46:19.177Z,95.89
2017-12-22T02:47:21.653Z,96.17
2017-12-22T02:48:24.129Z,96.52
2017-12-22T02:49:26.591Z,96.60
2017-12-22T02:50:29.064Z,96.79
2017-12-22T02:51:31.537Z,96.89
2017-12-22T02:52:34.025Z,96.31
2017-12-22T02:53:36.517Z,96.15
2017-12-22T02:54:38.987Z,95.89
2017-12-22T02:55:41.477Z,96.01
2017-12-22T02:56:43.965Z,95.83
2017-12-22T02:57:46.439Z,95.82
2017-12-22T02:58:48.916Z,95.93
2017-12-22T02:59:52.564Z,96.17
2017-12-22T03:00:55.049Z,96.51
2017-12-22T03:01:57.520Z,96.56
2017-12-22T03:02:59.997Z,96.50
2017-12-22T03:04:02.473Z,96.57
2017-12-22T03:05:04.948Z,96.55
2017-12-22T03:06:07.406Z,96.37
2017-12-22T03:07:09.880Z,96.43
2017-12-22T03:08:12.338Z,96.51
2017-12-22T03:09:14.821Z,96.40
2017-12-22T03:10:17.301Z,96.33
2017-12-22T03:11:19.763Z,96.29
2017-12-22T03:12:22.240Z,96.35
2017-12-22T03:13:24.694Z,96.18
2017-12-22T03:14:27.157Z,96.29
2017-12-22T03:15:29.636Z,96.42
2017-12-22T03:16:32.120Z,96.56
2017-12-22T03:17:34.594Z,96.70
2017-12-22T03:18:37.063Z,96.86
2017-12-22T03:19:39.543Z,96.93
2017-12-22T03:20:42.020Z,96.51
2017-12-22T03:21:44.492Z,96.48
2017-12-22T03:22:46.959Z,96.70
2017-12-22T03:23:49.436Z,96.85
2017-12-22T03:24:51.909Z,96.92
2017-12-22T03:25:54.367Z,96.88
2017-12-22T03:26:56.831Z,96.91
2017-12-22T03:27:59.388Z,96.61
2017-12-22T03:29:01.847Z,96.38
2017-12-22T03:30:04.307Z,96.07
2017-12-22T03:31:06.770Z,96.06
2017-12-22T03:32:09.256Z,96.03
2017-12-22T03:33:11.736Z,95.98
2017-12-22T03:34:14.290Z,95.75
2017-12-22T03:35:16.769Z,95.64
2017-12-22T03:36:19.230Z,95.63
2017-12-22T03:37:21.695Z,95.51
2017-12-22T03:38:24.169Z,95.33
2017-12-22T03:39:26.631Z,95.05
2017-12-22T03:40:29.090Z,95.03
2017-12-22T03:41:31.569Z,95.16
2017-12-22T03:42:34.072Z,95.24
2017-12-22T03:43:36.534Z,95.58
2017-12-22T03:44:39.013Z,95.77
2017-12-22T03:45:41.475Z,95.79
2017-12-22T03:46:43.959Z,95.68
2017-12-22T03:47:46.439Z,95.83
2017-12-22T03:48:48.916Z,95.79
2017-12-22T03:49:51.378Z,95.93
2017-12-22T03:50:53.844Z,96.09
2017-12-22T03:51:56.302Z,96.32
2017-12-22T03:52:58.782Z,96.43
2017-12-22T03:54:01.248Z,96.46
2017-12-22T03:55:03.717Z,96.43
2017-12-22T03:56:06.185Z,96.36
2017-12-22T03:57:08.670Z,96.45
2017-12-22T03:58:11.134Z,96.41
2017-12-22T03:59:13.616Z,96.48
2017-12-22T04:00:16.078Z,96.49
2017-12-22T04:01:18.534Z,96.33
2017-12-22T04:02:21.009Z,96.33
2017-12-22T04:03:23.474Z,96.48
2017-12-22T04:04:25.949Z,96.62
2017-12-22T04:05:28.421Z,96.61
2017-12-22T04:06:30.953Z,96.56
2017-12-22T04:07:33.406Z,96.55
2017-12-22T04:08:35.862Z,96.61
2017-12-22T04:09:38.412Z,96.70
2017-12-22T04:10:40.870Z,96.76
2017-12-22T04:11:43.348Z,96.58
2017-12-22T04:12:45.844Z,96.61
2017-12-22T04:13:48.320Z,96.65
2017-12-22T04:14:50.794Z,96.62
2017-12-22T04:15:53.251Z,96.24
2017-12-22T04:16:55.717Z,96.17
2017-12-22T04:17:58.207Z,96.36
2017-12-22T04:19:00.700Z,96.53
2017-12-22T04:20:03.176Z,96.65
2017-12-22T04:21:05.651Z,96.88
2017-12-22T04:22:08.107Z,96.86
2017-12-22T04:23:10.590Z,96.83
2017-12-22T04:24:13.042Z,96.88
2017-12-22T04:25:15.502Z,96.98
2017-12-22T04:26:17.967Z,97.09
2017-12-22T04:27:20.461Z,97.10
2017-12-22T04:28:22.947Z,96.97
2017-12-22T04:29:25.423Z,96.83
2017-12-22T04:30:27.907Z,96.86
2017-12-22T04:31:30.388Z,96.95
2017-12-22T04:32:32.858Z,96.96
2017-12-22T04:33:35.356Z,96.59
2017-12-22T04:34:37.831Z,96.13
2017-12-22T04:35:40.305Z,95.70
2017-12-22T04:36:42.780Z,95.72
2017-12-22T04:37:45.243Z,95.74
2017-12-22T04:38:47.736Z,95.80
2017-12-22T04:39:50.205Z,95.91
2017-12-22T04:40:52.691Z,95.98
2017-12-22T04:41:55.143Z,96.14
2017-12-22T04:42:57.603Z,95.59
2017-12-22T04:44:00.113Z,95.21
2017-12-22T04:45:02.574Z,95.13
2017-12-22T04:46:05.095Z,95.11
2017-12-22T04:47:07.561Z,95.34
2017-12-22T04:48:10.030Z,95.45
2017-12-22T04:49:12.518Z,95.80
2017-12-22T04:50:14.982Z,96.05
2017-12-22T04:51:17.432Z,96.16
2017-12-22T04:52:19.883Z,95.85
2017-12-22T04:53:22.343Z,95.77
2017-12-22T04:54:24.832Z,95.94
2017-12-22T04:55:27.308Z,96.11
2017-12-22T04:56:29.777Z,96.30
2017-12-22T04:57:32.226Z,96.41
2017-12-22T04:58:34.689Z,96.57
2017-12-22T04:59:37.186Z,96.75
2017-12-22T05:00:39.657Z,96.41
2017-12-22T05:01:42.120Z,95.66
2017-12-22T05:02:44.585Z,95.18
2017-12-22T05:03:47.042Z,94.92
2017-12-22T05:04:49.544Z,94.84
2017-12-22T05:05:52.011Z,94.57
2017-12-22T05:06:54.462Z,94.59
2017-12-22T05:07:56.915Z,94.64
2017-12-22T05:08:59.366Z,94.91
2017-12-22T05:10:01.838Z,95.29
2017-12-22T05:11:04.290Z,95.19
2017-12-22T05:12:06.764Z,95.37
2017-12-22T05:13:09.236Z,95.62
2017-12-22T05:14:11.712Z,95.97
2017-12-22T05:15:14.181Z,95.91
2017-12-22T05:16:16.649Z,95.97
2017-12-22T05:17:19.109Z,96.11
2017-12-22T05:18:21.563Z,96.25
2017-12-22T05:19:24.040Z,96.45
2017-12-22T05:20:26.528Z,96.66
2017-12-22T05:21:28.998Z,96.79
2017-12-22T05:22:31.468Z,96.43
2017-12-22T05:23:33.936Z,96.12
2017-12-22T05:24:36.426Z,95.89
2017-12-22T05:25:38.894Z,95.71
2017-12-22T05:26:41.356Z,95.50
2017-12-22T05:27:43.828Z,95.42
2017-12-22T05:28:46.300Z,95.44
2017-12-22T05:29:48.766Z,95.40
2017-12-22T05:30:51.234Z,95.55
2017-12-22T05:31:53.704Z,95.69
2017-12-22T05:32:56.215Z,95.82
2017-12-22T05:33:58.682Z,96.01
2017-12-22T05:35:01.143Z,96.23
2017-12-22T05:36:03.638Z,96.39
2017-12-22T05:37:06.107Z,96.56
2017-12-22T05:38:08.572Z,96.42
2017-12-22T05:39:11.025Z,96.45
2017-12-22T05:40:13.489Z,96.12
2017-12-22T05:41:15.966Z,95.60
2017-12-22T05:42:18.429Z,95.69
2017-12-22T05:43:20.914Z,95.88
2017-12-22T05:44:23.366Z,95.81
2017-12-22T05:45:25.819Z,95.46
2017-12-22T05:46:28.365Z,95.27
2017-12-22T05:47:30.819Z,95.40
2017-12-22T05:48:34.386Z,95.32
2017-12-22T05:49:36.838Z,95.15
2017-12-22T05:50:39.290Z,95.37
2017-12-22T05:51:41.773Z,95.41
2017-12-22T05:52:44.246Z,95.68
2017-12-22T05:53:46.713Z,95.43
2017-12-22T05:54:49.167Z,95.25
2017-12-22T05:55:51.668Z,95.10
2017-12-22T05:56:54.142Z,95.05
2017-12-22T05:57:57.551Z,95.35
2017-12-22T05:58:59.998Z,95.44
2017-12-22T06:00:02.489Z,95.42
2017-12-22T06:01:04.956Z,95.30
2017-12-22T06:02:07.431Z,95.29
2017-12-22T06:03:09.896Z,95.58
2017-12-22T06:04:12.375Z,95.92
2017-12-22T06:05:14.835Z,95.10
2017-12-22T06:06:17.302Z,94.52
2017-12-22T06:07:19.802Z,94.78
2017-12-22T06:08:22.264Z,94.97
2017-12-22T06:09:24.748Z,95.19
2017-12-22T06:10:27.207Z,95.25
2017-12-22T06:11:29.668Z,95.31
2017-12-22T06:12:32.152Z,95.36
2017-12-22T06:13:34.610Z,95.48
2017-12-22T06:14:37.062Z,95.50
2017-12-22T06:15:39.510Z,95.80
2017-12-22T06:16:41.958Z,95.92
2017-12-22T06:17:44.438Z,95.94
2017-12-22T06:18:46.908Z,95.91
2017-12-22T06:19:49.365Z,95.81
2017-12-22T06:20:51.839Z,95.68
2017-12-22T06:21:54.290Z,95.82
2017-12-22T06:22:56.775Z,95.98
2017-12-22T06:23:59.241Z,95.99
2017-12-22T06:25:01.702Z,95.56
2017-12-22T06:26:04.164Z,95.20
2017-12-22T06:27:06.623Z,95.34
2017-12-22T06:28:09.135Z,95.65
2017-12-22T06:29:11.576Z,95.73
2017-12-22T06:30:14.061Z,95.76
2017-12-22T06:31:16.510Z,95.59
2017-12-22T06:32:18.976Z,95.64
2017-12-22T06:33:21.447Z,95.21
2017-12-22T06:34:23.913Z,95.29
2017-12-22T06:35:26.381Z,95.45
2017-12-22T06:36:28.844Z,95.71
2017-12-22T06:37:31.310Z,95.90
2017-12-22T06:38:33.795Z,95.74
2017-12-22T06:39:36.243Z,95.57
2017-12-22T06:40:38.695Z,95.51
2017-12-22T06:41:41.155Z,95.71
2017-12-22T06:42:43.616Z,95.82
2017-12-22T06:43:46.095Z,95.71
2017-12-22T06:44:48.549Z,95.87
2017-12-22T06:45:51.016Z,95.91
2017-12-22T06:46:53.467Z,96.01
2017-12-22T06:47:56.296Z,96.14
2017-12-22T06:48:58.771Z,96.29
2017-12-22T06:50:01.254Z,96.51
2017-12-22T06:51:03.729Z,96.70
2017-12-22T06:52:06.180Z,96.62
2017-12-22T06:53:08.649Z,96.05
2017-12-22T06:54:11.134Z,95.59
2017-12-22T06:55:13.582Z,95.55
2017-12-22T06:56:16.044Z,95.36
2017-12-22T06:57:18.498Z,95.07
2017-12-22T06:58:20.946Z,95.21
2017-12-22T06:59:23.418Z,95.13
2017-12-22T07:00:25.884Z,95.31
2017-12-22T07:01:28.335Z,95.56
2017-12-22T07:02:30.823Z,95.03
2017-12-22T07:03:33.289Z,94.63
2017-12-22T07:04:35.785Z,94.62
2017-12-22T07:05:38.252Z,94.74
2017-12-22T07:06:40.705Z,95.03
2017-12-22T07:07:43.173Z,94.88
2017-12-22T07:08:45.618Z,94.84
2017-12-22T07:09:48.091Z,94.89
2017-12-22T07:10:50.546Z,94.92
2017-12-22T07:11:52.994Z,95.15
2017-12-22T07:12:55.673Z,95.50
2017-12-22T07:13:58.140Z,95.79
2017-12-22T07:15:00.610Z,95.64
2017-12-22T07:16:03.076Z,95.26
2017-12-22T07:17:05.530Z,95.01
2017-12-22T07:18:07.978Z,95.13
2017-12-22T07:19:10.440Z,94.91
2017-12-22T07:20:12.933Z,95.29
2017-12-22T07:21:15.398Z,95.52
2017-12-22T07:22:17.854Z,95.78
2017-12-22T07:23:20.330Z,95.70
2017-12-22T07:24:22.806Z,95.32
2017-12-22T07:25:25.278Z,95.12
2017-12-22T07:26:27.757Z,94.78
2017-12-22T07:27:30.243Z,94.90
2017-12-22T07:28:32.686Z,94.97
2017-12-22T07:29:35.143Z,94.59
2017-12-22T07:30:37.635Z,94.51
2017-12-22T07:31:40.093Z,94.71
2017-12-22T07:32:42.558Z,95.16
2017-12-22T07:33:45.012Z,95.46
2017-12-22T07:34:47.467Z,95.82
2017-12-22T07:35:49.955Z,96.27
2017-12-22T07:36:52.421Z,96.43
2017-12-22T07:37:54.878Z,96.72
2017-12-22T07:38:57.335Z,96.77
2017-12-22T07:39:59.790Z,96.37
2017-12-22T07:41:02.294Z,95.67
2017-12-22T07:42:04.753Z,95.58
2017-12-22T07:43:07.225Z,95.93
2017-12-22T07:44:09.701Z,96.24
2017-12-22T07:45:12.181Z,96.45
2017-12-22T07:46:14.650Z,96.63
2017-12-22T07:47:17.102Z,96.70
2017-12-22T07:48:19.601Z,96.40
2017-12-22T07:49:22.054Z,96.26
2017-12-22T07:50:24.506Z,96.24
2017-12-22T07:51:26.996Z,96.31
2017-12-22T07:52:29.464Z,96.28
2017-12-22T07:53:31.923Z,96.40
2017-12-22T07:54:34.402Z,96.29
2017-12-22T07:55:36.883Z,96.17
2017-12-22T07:56:39.364Z,96.01
2017-12-22T07:57:41.827Z,95.69
2017-12-22T07:58:44.281Z,94.96
2017-12-22T07:59:46.747Z,94.91
2017-12-22T08:00:49.215Z,94.77
2017-12-22T08:01:51.698Z,94.75
2017-12-22T08:02:54.165Z,94.79
2017-12-22T08:03:56.628Z,95.00
2017-12-22T08:04:59.096Z,94.96
2017-12-22T08:06:01.562Z,94.93
2017-12-22T08:07:04.040Z,94.58
2017-12-22T08:08:06.498Z,94.77
2017-12-22T08:09:08.960Z,95.20
2017-12-22T08:10:11.414Z,95.45
2017-12-22T08:11:13.884Z,95.77
2017-12-22T08:12:16.385Z,96.02
2017-12-22T08:13:18.883Z,96.23
2017-12-22T08:14:21.348Z,96.41
2017-12-22T08:15:23.812Z,96.47
2017-12-22T08:16:26.326Z,96.37
2017-12-22T08:17:28.816Z,95.69
2017-12-22T08:18:31.266Z,95.60
2017-12-22T08:19:33.741Z,95.58
2017-12-22T08:20:36.218Z,95.38
2017-12-22T08:21:38.675Z,95.20
2017-12-22T08:22:41.150Z,94.83
2017-12-22T08:23:43.612Z,94.50
2017-12-22T08:24:46.059Z,94.68
2017-12-22T08:25:48.517Z,94.99
2017-12-22T08:26:50.986Z,95.27
2017-12-22T08:27:53.457Z,95.54
2017-12-22T08:28:55.910Z,95.78
2017-12-22T08:29:58.358Z,95.96
2017-12-22T08:31:00.811Z,95.79
2017-12-22T08:32:03.264Z,95.48
2017-12-22T08:33:05.735Z,94.66
2017-12-22T08:34:08.202Z,93.59
2017-12-22T08:35:10.708Z,92.95
2017-12-22T08:36:13.175Z,92.76
2017-12-22T08:37:15.645Z,92.75
2017-12-22T08:38:18.132Z,92.97
2017-12-22T08:39:20.856Z,93.18
2017-12-22T08:40:23.322Z,93.53
2017-12-22T08:41:25.774Z,93.53
2017-12-22T08:42:28.226Z,93.87
2017-12-22T08:43:30.694Z,93.62
2017-12-22T08:44:33.178Z,93.72
2017-12-22T08:45:35.649Z,93.92
2017-12-22T08:46:38.152Z,94.14
2017-12-22T08:47:40.607Z,94.46
2017-12-22T08:48:43.108Z,94.64
2017-12-22T08:49:45.573Z,94.75
2017-12-22T08:50:48.044Z,94.80
2017-12-22T08:51:50.513Z,94.72
2017-12-22T08:52:52.984Z,94.77
2017-12-22T08:53:55.474Z,94.75
2017-12-22T08:54:57.937Z,94.81
2017-12-22T08:56:00.390Z,94.19
2017-12-22T08:57:02.849Z,93.64
2017-12-22T08:58:05.329Z,93.35
2017-12-22T08:59:07.825Z,93.30
2017-12-22T09:00:10.305Z,93.59
2017-12-22T09:01:12.754Z,93.96
2017-12-22T09:02:15.213Z,94.14
2017-12-22T09:03:17.772Z,93.71
2017-12-22T09:04:20.267Z,93.66
2017-12-22T09:05:22.725Z,93.85
2017-12-22T09:06:25.208Z,94.23
2017-12-22T09:07:27.671Z,94.42
2017-12-22T09:08:30.145Z,94.60
2017-12-22T09:09:32.614Z,94.71
2017-12-22T09:10:35.076Z,94.80
2017-12-22T09:11:37.527Z,94.89
2017-12-22T09:12:39.990Z,94.97
2017-12-22T09:13:42.446Z,94.93
2017-12-22T09:14:44.970Z,94.52
2017-12-22T09:15:47.430Z,94.48
2017-12-22T09:16:49.891Z,94.16
2017-12-22T09:17:52.439Z,94.17
2017-12-22T09:18:54.909Z,93.97
2017-12-22T09:19:57.409Z,94.14
2017-12-22T09:20:59.854Z,94.38
2017-12-22T09:22:02.362Z,94.57
2017-12-22T09:23:04.837Z,94.80
2017-12-22T09:24:07.319Z,95.01
2017-12-22T09:25:09.840Z,95.02
2017-12-22T09:26:15.954Z,94.95
2017-12-22T09:27:18.489Z,95.12
2017-12-22T09:28:20.939Z,93.74
2017-12-22T09:29:23.402Z,92.37
2017-12-22T09:30:25.890Z,92.75
2017-12-22T09:31:28.386Z,93.06
2017-12-22T09:32:30.848Z,92.34
2017-12-22T09:33:33.308Z,92.48
2017-12-22T09:34:35.766Z,92.36
2017-12-22T09:35:38.272Z,92.58
2017-12-22T09:36:40.851Z,92.71
2017-12-22T09:37:43.312Z,92.89
2017-12-22T09:38:45.827Z,93.00
2017-12-22T09:39:48.336Z,93.04
2017-12-22T09:40:50.844Z,93.32
2017-12-22T09:41:53.298Z,93.47
2017-12-22T09:42:55.799Z,93.62
2017-12-22T09:43:58.258Z,93.78
2017-12-22T09:45:00.723Z,93.84
2017-12-22T09:46:03.214Z,93.65
2017-12-22T09:47:05.733Z,93.29
2017-12-22T09:48:08.244Z,93.17
2017-12-22T09:49:10.698Z,93.33
2017-12-22T09:50:13.210Z,93.13
2017-12-22T09:51:15.687Z,92.88
2017-12-22T09:52:18.177Z,93.40
2017-12-22T09:53:20.648Z,93.01
2017-12-22T09:54:23.128Z,92.99
2017-12-22T09:55:25.585Z,93.52
2017-12-22T09:56:28.076Z,94.59
2017-12-22T09:57:30.545Z,95.05
2017-12-22T09:58:33.030Z,95.41
2017-12-22T09:59:35.501Z,95.49
2017-12-22T10:00:38.799Z,96.08
2017-12-22T10:01:41.306Z,96.28
2017-12-22T10:02:43.826Z,96.56
2017-12-22T10:03:46.278Z,96.70
2017-12-22T10:04:48.953Z,96.34
2017-12-22T10:05:51.428Z,95.95
2017-12-22T10:06:53.980Z,96.21
2017-12-22T10:07:57.062Z,95.92
2017-12-22T10:08:59.527Z,95.64
2017-12-22T10:10:02.021Z,95.65
2017-12-22T10:11:04.659Z,95.54
2017-12-22T10:12:07.159Z,95.70
2017-12-22T10:13:09.630Z,95.86
2017-12-22T10:14:12.137Z,95.58
2017-12-22T10:15:14.620Z,95.59
2017-12-22T10:16:17.113Z,95.55
2017-12-22T10:17:19.812Z,95.65
2017-12-22T10:18:22.341Z,96.25
2017-12-22T10:19:24.811Z,96.21
2017-12-22T10:20:27.316Z,96.35
2017-12-22T10:21:30.704Z,96.61
2017-12-22T10:22:33.186Z,96.63
2017-12-22T10:23:35.665Z,96.65
2017-12-22T10:24:38.253Z,96.74
2017-12-22T10:25:40.720Z,96.81
2017-12-22T10:26:43.188Z,96.92
2017-12-22T10:27:45.717Z,96.31
2017-12-22T10:28:48.183Z,96.16
2017-12-22T10:29:50.664Z,96.22
2017-12-22T10:30:53.120Z,96.27
2017-12-22T10:31:55.692Z,96.03
2017-12-22T10:32:58.172Z,96.01
2017-12-22T10:34:00.650Z,96.31
2017-12-22T10:35:03.175Z,96.49
2017-12-22T10:36:05.648Z,96.66
2017-12-22T10:37:08.106Z,96.61
2017-12-22T10:38:10.618Z,97.01
2017-12-22T10:39:13.476Z,97.09
2017-12-22T10:40:15.951Z,97.08
2017-12-22T10:41:18.418Z,97.12
2017-12-22T10:42:20.901Z,97.25
2017-12-22T10:43:23.356Z,97.43
2017-12-22T10:44:25.814Z,97.41
2017-12-22T10:45:28.292Z,97.50
2017-12-22T10:46:30.842Z,97.47
2017-12-22T10:47:33.322Z,97.47
2017-12-22T10:48:35.814Z,97.17
2017-12-22T10:49:38.270Z,96.32
2017-12-22T10:50:40.754Z,96.17
2017-12-22T10:51:43.242Z,95.60
2017-12-22T10:52:45.702Z,95.59
2017-12-22T10:53:48.167Z,95.55
2017-12-22T10:54:50.644Z,96.06
2017-12-22T10:55:53.118Z,96.19
2017-12-22T10:56:55.593Z,96.34
2017-12-22T10:57:58.051Z,95.86
2017-12-22T10:59:00.534Z,95.75
2017-12-22T11:00:02.990Z,95.55
2017-12-22T11:01:05.450Z,96.04
2017-12-22T11:02:07.919Z,96.25
2017-12-22T11:03:10.397Z,96.14
2017-12-22T11:04:12.862Z,96.17
2017-12-22T11:05:15.341Z,96.02
2017-12-22T11:06:17.835Z,96.31
2017-12-22T11:07:20.304Z,96.36
2017-12-22T11:08:22.779Z,96.49
2017-12-22T11:09:25.257Z,96.58
2017-12-22T11:10:27.723Z,96.66
2017-12-22T11:11:30.205Z,96.49
2017-12-22T11:12:32.693Z,96.14
2017-12-22T11:13:35.189Z,96.16
2017-12-22T11:14:37.661Z,96.31
2017-12-22T11:15:40.128Z,96.33
2017-12-22T11:16:42.584Z,96.03
2017-12-22T11:17:45.062Z,96.18
2017-12-22T11:18:47.521Z,95.83
2017-12-22T11:19:49.988Z,96.21
2017-12-22T11:20:52.482Z,96.42
2017-12-22T11:21:54.960Z,95.94
2017-12-22T11:22:57.434Z,96.33
2017-12-22T11:23:59.897Z,96.52
2017-12-22T11:25:02.360Z,96.40
2017-12-22T11:26:04.814Z,96.48
2017-12-22T11:27:07.289Z,96.49
2017-12-22T11:28:09.751Z,96.80
2017-12-22T11:29:12.221Z,96.69
2017-12-22T11:30:14.688Z,96.15
2017-12-22T11:31:17.172Z,96.11
2017-12-22T11:32:19.634Z,95.92
2017-12-22T11:33:22.115Z,95.63
2017-12-22T11:34:24.568Z,95.58
2017-12-22T11:35:27.032Z,96.00
2017-12-22T11:36:29.495Z,96.43
2017-12-22T11:37:31.955Z,96.72
2017-12-22T11:38:34.421Z,96.49
2017-12-22T11:39:36.909Z,96.05
2017-12-22T11:40:39.367Z,95.99
2017-12-22T11:41:41.831Z,95.42
2017-12-22T11:42:44.305Z,95.41
2017-12-22T11:43:46.771Z,95.47
2017-12-22T11:44:49.250Z,95.55
2017-12-22T11:45:51.715Z,95.86
2017-12-22T11:46:54.189Z,95.88
2017-12-22T11:47:56.684Z,95.80
2017-12-22T11:48:59.150Z,95.58
2017-12-22T11:50:01.611Z,95.80
2017-12-22T11:51:04.088Z,96.15
2017-12-22T11:52:06.587Z,95.85
2017-12-22T11:53:09.053Z,95.99
2017-12-22T11:54:11.514Z,96.25
2017-12-22T11:55:13.978Z,96.68
2017-12-22T11:56:16.468Z,96.55
2017-12-22T11:57:18.956Z,96.58
2017-12-22T11:58:21.432Z,96.81
2017-12-22T11:59:23.908Z,96.60
2017-12-22T12:00:26.368Z,96.68
2017-12-22T12:01:28.835Z,95.92
2017-12-22T12:02:31.313Z,95.72
2017-12-22T12:03:33.770Z,96.18
2017-12-22T12:05:45.165Z,95.70
2017-12-22T12:06:47.636Z,95.75
2017-12-22T12:07:50.094Z,95.84
2017-12-22T12:08:52.569Z,95.96
2017-12-22T12:09:55.037Z,96.25
2017-12-22T12:10:57.497Z,96.51
2017-12-22T12:11:59.973Z,96.62
2017-12-22T12:13:02.438Z,96.68
2017-12-22T12:14:04.913Z,96.99
2017-12-22T12:15:07.392Z,97.29
2017-12-22T12:16:09.869Z,97.33
2017-12-22T12:17:12.327Z,96.65
2017-12-22T12:18:14.880Z,96.18
2017-12-22T12:19:17.338Z,95.97
2017-12-22T12:20:20.135Z,96.08
2017-12-22T12:21:22.665Z,96.16
2017-12-22T12:22:25.130Z,96.15
2017-12-22T12:23:27.594Z,96.65
2017-12-22T12:24:30.139Z,97.10
2017-12-22T12:25:32.805Z,96.95
2017-12-22T12:26:35.313Z,97.04
2017-12-22T12:27:37.955Z,97.16
2017-12-22T12:28:40.416Z,97.16
2017-12-22T12:29:42.874Z,96.80
2017-12-22T12:30:45.349Z,96.90
2017-12-22T12:31:47.835Z,97.08
2017-12-22T12:32:50.300Z,97.23
2017-12-22T12:33:52.773Z,97.26
2017-12-22T12:34:55.252Z,97.20
2017-12-22T12:35:57.710Z,97.08
2017-12-22T12:37:00.199Z,97.21
2017-12-22T12:38:02.671Z,97.07
2017-12-22T12:39:05.127Z,96.86
2017-12-22T12:40:07.588Z,96.53
2017-12-22T12:41:10.064Z,96.54
2017-12-22T12:42:12.565Z,96.46
2017-12-22T12:43:15.068Z,96.92
2017-12-22T12:44:17.526Z,97.01
2017-12-22T12:45:20.054Z,97.10
2017-12-22T12:46:22.512Z,97.11
2017-12-22T12:47:24.980Z,97.20
2017-12-22T12:48:27.453Z,96.82
2017-12-22T12:49:29.940Z,96.63
2017-12-22T12:50:32.423Z,96.69
2017-12-22T12:51:34.904Z,96.41
2017-12-22T12:52:37.392Z,96.45
2017-12-22T12:53:40.035Z,96.73
2017-12-22T12:54:42.513Z,96.67
2017-12-22T12:55:45.099Z,96.58
2017-12-22T12:56:47.582Z,96.18
2017-12-22T12:57:50.089Z,95.93
2017-12-22T12:58:52.852Z,95.92
2017-12-22T12:59:55.338Z,95.99
2017-12-22T13:00:57.813Z,96.18
2017-12-22T13:02:00.292Z,96.49
2017-12-22T13:03:02.792Z,96.60
2017-12-22T13:04:05.268Z,96.96
2017-12-22T13:05:07.745Z,97.03
2017-12-22T13:06:10.229Z,96.89
2017-12-22T13:07:12.694Z,96.87
2017-12-22T13:08:15.255Z,96.67
2017-12-22T13:09:17.733Z,96.90
2017-12-22T13:10:20.204Z,96.98
2017-12-22T13:11:22.670Z,97.01
2017-12-22T13:12:25.136Z,97.23
2017-12-22T13:13:27.622Z,97.09
2017-12-22T13:14:30.121Z,97.03
2017-12-22T13:15:32.593Z,97.06
2017-12-22T13:16:35.052Z,97.35
2017-12-22T13:17:37.537Z,97.54
2017-12-22T13:18:40.041Z,97.04
2017-12-22T13:19:42.517Z,97.13
2017-12-22T13:20:44.987Z,97.18
2017-12-22T13:21:47.475Z,97.04
2017-12-22T13:22:49.954Z,96.32
2017-12-22T13:23:52.440Z,95.90
2017-12-22T13:24:54.928Z,95.87
2017-12-22T13:25:57.409Z,95.75
2017-12-22T13:27:00.053Z,95.90
2017-12-22T13:28:02.536Z,96.13